Terminal Aerodrome Forecast
Issued by NWS

Home | Current Version | Previous Version | Text Only | Print | Product List | Glossary Off
Versions: 1 2 3 4 5 6 7 8 9 10 11 12 13 14 15 16 17 18 19 20 21 22 23 24 25 26 27 28 29

000
FTUS43 KLOT 212105 AAA
TAFMDW
TAF AMD
KMDW 212105Z 2121/2224 05010KT P6SM FEW020 OVC180
     FM220800 06008KT P6SM FEW020 SCT060 BKN120
     FM221700 07013KT P6SM OVC060
     FM222200 08010KT P6SM OVC025=

USA.gov is the U.S. government's official web portal to all federal, state and local government web resources and services.